Aviation Digital Data Service (ADDS)

Output produced by METARs form (0238 UTC 22 July 2017)
found at http://www.aviationweather.gov/adds/metars/
 
TAF FNBG 212245Z 2200/2212 VRB03KT CAVOK 
     TEMPO 2206/2210 OVC020 
     BECMG 2210/2212 32008KT BKN020
       
TAF FNCA 212245Z 2200/2212 VRB03KT 8000 BKN023 
     TEMPO 2206/2210 0800 FG OVC015 
     BECMG 2210/2212 22008KT 5000 BR SCT018 BKN023
       
TAF FNHU 212300Z 2200/2212 VRB03KT 9000 NSC 
     BECMG 2206/2208 BKN025
       
FNLU 220000Z VRB02KT 9999 BKN023 20/19 Q1015 NOSIG
TAF FNLU 212245Z 2200/2306 VRB03KT 6000 BKN023 
     PROB30 
     TEMPO 2204/2208 2000 DZ SCT015 
     BECMG 2209/2212 5000 BR SCT018 BKN023 
     BECMG 2212/2214 28010KT 8000 
     BECMG 2215/2218 9000 FEW020 
     BECMG 2220/2223 20008KT 7000 SCT020 
     BECMG 2300/2302 VRB03KT BKN023
       
TAF FNUE 212245Z 2200/2212 VRB03KT CAVOK 
     TEMPO 2208/2212 14010KT
       
TAF FNMA 212245Z 2200/2212 16010KT 8000 BKN020 
     TEMPO 2205/2209 27010KT 5000 BR BKN010
       
TAF FNMO 212300Z 2200/2212 VRB03KT 9999 NSC 
     BECMG 2206/2208 8000 OVC010 
     TEMPO 2208/2212 28005KT SCT015
       
TAF FNGI 212245Z 2200/2212 09010KT CAVOK 
     TEMPO 2206/2212 02005KT
       
TAF FNSA 212245Z 2200/2212 VRB03KT CAVOK 
     TEMPO 2208/2212 16010KT
       
TAF FNSO 212245Z 2200/2212 VRB03KT 9999 BKN025 
     BECMG 2206/2208 5000 BR FEW018 BKN020 
     BECMG 2209/2212 22008KT